sensor_id;sensor_type;location;lat;lon;timestamp;P1;durP1;ratioP1;P2;durP2;ratioP2
55288;SDS011;41154;45.394;5.734;2022-07-29T00:01:21;4.10;;;2.00;;
55288;SDS011;41154;45.394;5.734;2022-07-29T00:03:47;3.03;;;2.35;;
55288;SDS011;41154;45.394;5.734;2022-07-29T00:06:14;3.00;;;2.17;;
55288;SDS011;41154;45.394;5.734;2022-07-29T00:08:40;4.38;;;2.10;;
55288;SDS011;41154;45.394;5.734;2022-07-29T00:11:06;4.10;;;2.38;;
55288;SDS011;41154;45.394;5.734;2022-07-29T00:13:32;5.68;;;2.33;;
55288;SDS011;41154;45.394;5.734;2022-07-29T00:15:57;6.07;;;2.30;;
55288;SDS011;41154;45.394;5.734;2022-07-29T00:18:24;2.65;;;2.40;;
55288;SDS011;41154;45.394;5.734;2022-07-29T00:20:49;4.78;;;2.40;;
55288;SDS011;41154;45.394;5.734;2022-07-29T00:23:15;2.92;;;2.13;;
55288;SDS011;41154;45.394;5.734;2022-07-29T00:25:41;2.40;;;2.10;;
55288;SDS011;41154;45.394;5.734;2022-07-29T00:28:06;4.00;;;2.13;;
55288;SDS011;41154;45.394;5.734;2022-07-29T00:30:32;3.28;;;2.33;;
55288;SDS011;41154;45.394;5.734;2022-07-29T00:32:58;4.68;;;2.13;;
55288;SDS011;41154;45.394;5.734;2022-07-29T00:35:24;3.63;;;2.10;;
55288;SDS011;41154;45.394;5.734;2022-07-29T00:38:08;6.20;;;2.28;;
55288;SDS011;41154;45.394;5.734;2022-07-29T00:40:34;3.83;;;2.20;;
55288;SDS011;41154;45.394;5.734;2022-07-29T00:42:59;3.42;;;2.17;;
55288;SDS011;41154;45.394;5.734;2022-07-29T00:45:26;2.70;;;2.50;;
55288;SDS011;41154;45.394;5.734;2022-07-29T00:47:52;4.38;;;2.78;;
55288;SDS011;41154;45.394;5.734;2022-07-29T00:50:18;2.92;;;2.63;;
55288;SDS011;41154;45.394;5.734;2022-07-29T00:52:44;3.55;;;2.80;;
55288;SDS011;41154;45.394;5.734;2022-07-29T00:55:13;3.28;;;2.83;;
55288;SDS011;41154;45.394;5.734;2022-07-29T00:57:41;2.55;;;2.10;;
55288;SDS011;41154;45.394;5.734;2022-07-29T01:00:12;4.35;;;2.20;;
55288;SDS011;41154;45.394;5.734;2022-07-29T01:02:48;5.25;;;2.22;;
55288;SDS011;41154;45.394;5.734;2022-07-29T01:05:15;3.33;;;2.35;;
55288;SDS011;41154;45.394;5.734;2022-07-29T01:07:43;3.08;;;2.30;;
55288;SDS011;41154;45.394;5.734;2022-07-29T01:10:11;3.17;;;2.47;;
55288;SDS011;41154;45.394;5.734;2022-07-29T01:12:39;3.03;;;2.47;;
55288;SDS011;41154;45.394;5.734;2022-07-29T01:15:07;4.70;;;2.20;;
55288;SDS011;41154;45.394;5.734;2022-07-29T01:23:07;4.30;;;2.35;;
55288;SDS011;41154;45.394;5.734;2022-07-29T01:34:21;5.05;;;2.15;;
55288;SDS011;41154;45.394;5.734;2022-07-29T01:36:51;2.95;;;2.53;;
55288;SDS011;41154;45.394;5.734;2022-07-29T01:39:30;4.32;;;2.58;;
55288;SDS011;41154;45.394;5.734;2022-07-29T01:42:02;3.88;;;2.22;;
55288;SDS011;41154;45.394;5.734;2022-07-29T01:44:37;3.17;;;2.20;;
55288;SDS011;41154;45.394;5.734;2022-07-29T01:47:12;4.15;;;2.20;;
55288;SDS011;41154;45.394;5.734;2022-07-29T01:49:46;4.53;;;2.28;;
55288;SDS011;41154;45.394;5.734;2022-07-29T01:52:27;4.47;;;2.00;;
55288;SDS011;41154;45.394;5.734;2022-07-29T01:55:15;3.83;;;2.30;;
55288;SDS011;41154;45.394;5.734;2022-07-29T01:57:43;2.60;;;2.30;;
55288;SDS011;41154;45.394;5.734;2022-07-29T02:00:12;3.63;;;2.30;;
55288;SDS011;41154;45.394;5.734;2022-07-29T02:02:41;3.33;;;2.45;;
55288;SDS011;41154;45.394;5.734;2022-07-29T02:05:10;3.25;;;2.15;;
55288;SDS011;41154;45.394;5.734;2022-07-29T02:07:42;2.63;;;2.28;;
55288;SDS011;41154;45.394;5.734;2022-07-29T02:10:10;3.25;;;2.35;;
55288;SDS011;41154;45.394;5.734;2022-07-29T02:12:37;4.63;;;2.20;;
55288;SDS011;41154;45.394;5.734;2022-07-29T02:15:05;2.97;;;2.10;;
55288;SDS011;41154;45.394;5.734;2022-07-29T02:17:39;2.97;;;2.38;;
55288;SDS011;41154;45.394;5.734;2022-07-29T02:20:09;3.90;;;2.38;;
55288;SDS011;41154;45.394;5.734;2022-07-29T02:22:37;3.67;;;2.30;;
55288;SDS011;41154;45.394;5.734;2022-07-29T02:25:05;3.33;;;2.05;;
55288;SDS011;41154;45.394;5.734;2022-07-29T02:27:33;6.85;;;2.50;;
55288;SDS011;41154;45.394;5.734;2022-07-29T02:30:00;3.65;;;2.35;;
55288;SDS011;41154;45.394;5.734;2022-07-29T02:32:28;2.50;;;2.10;;
55288;SDS011;41154;45.394;5.734;2022-07-29T02:34:56;2.75;;;2.05;;
55288;SDS011;41154;45.394;5.734;2022-07-29T02:37:23;4.30;;;2.53;;
55288;SDS011;41154;45.394;5.734;2022-07-29T02:39:52;4.20;;;2.20;;
55288;SDS011;41154;45.394;5.734;2022-07-29T02:42:21;5.32;;;2.50;;
55288;SDS011;41154;45.394;5.734;2022-07-29T02:44:48;3.22;;;2.53;;
55288;SDS011;41154;45.394;5.734;2022-07-29T02:50:15;3.35;;;2.50;;
55288;SDS011;41154;45.394;5.734;2022-07-29T02:53:00;2.65;;;2.13;;
55288;SDS011;41154;45.394;5.734;2022-07-29T02:55:37;3.13;;;2.40;;
55288;SDS011;41154;45.394;5.734;2022-07-29T02:58:30;3.53;;;2.30;;
55288;SDS011;41154;45.394;5.734;2022-07-29T03:01:02;4.00;;;2.25;;
55288;SDS011;41154;45.394;5.734;2022-07-29T03:03:30;3.75;;;2.50;;
55288;SDS011;41154;45.394;5.734;2022-07-29T03:06:01;2.75;;;2.28;;
55288;SDS011;41154;45.394;5.734;2022-07-29T03:08:28;5.90;;;2.33;;
55288;SDS011;41154;45.394;5.734;2022-07-29T03:10:56;7.57;;;2.50;;
55288;SDS011;41154;45.394;5.734;2022-07-29T03:13:22;6.28;;;2.55;;
55288;SDS011;41154;45.394;5.734;2022-07-29T03:15:49;3.40;;;2.40;;
55288;SDS011;41154;45.394;5.734;2022-07-29T03:18:15;6.07;;;2.70;;
55288;SDS011;41154;45.394;5.734;2022-07-29T03:20:42;5.40;;;2.72;;
55288;SDS011;41154;45.394;5.734;2022-07-29T03:23:08;2.83;;;2.25;;
55288;SDS011;41154;45.394;5.734;2022-07-29T03:25:34;5.72;;;2.70;;
55288;SDS011;41154;45.394;5.734;2022-07-29T03:28:00;2.92;;;2.42;;
55288;SDS011;41154;45.394;5.734;2022-07-29T03:30:26;4.43;;;2.63;;
55288;SDS011;41154;45.394;5.734;2022-07-29T03:32:52;3.70;;;2.53;;
55288;SDS011;41154;45.394;5.734;2022-07-29T03:35:18;4.10;;;2.33;;
55288;SDS011;41154;45.394;5.734;2022-07-29T03:37:48;3.95;;;2.20;;
55288;SDS011;41154;45.394;5.734;2022-07-29T03:40:16;4.10;;;2.15;;
55288;SDS011;41154;45.394;5.734;2022-07-29T03:42:48;2.95;;;2.50;;
55288;SDS011;41154;45.394;5.734;2022-07-29T03:45:17;2.92;;;2.50;;
55288;SDS011;41154;45.394;5.734;2022-07-29T03:47:45;3.55;;;2.42;;
55288;SDS011;41154;45.394;5.734;2022-07-29T03:50:15;2.45;;;2.15;;
55288;SDS011;41154;45.394;5.734;2022-07-29T03:52:44;3.70;;;2.17;;
55288;SDS011;41154;45.394;5.734;2022-07-29T03:55:10;4.10;;;2.65;;
55288;SDS011;41154;45.394;5.734;2022-07-29T03:57:37;4.00;;;2.38;;
55288;SDS011;41154;45.394;5.734;2022-07-29T04:00:05;3.88;;;2.40;;
55288;SDS011;41154;45.394;5.734;2022-07-29T04:02:32;4.50;;;2.40;;
55288;SDS011;41154;45.394;5.734;2022-07-29T04:04:58;7.68;;;2.70;;
55288;SDS011;41154;45.394;5.734;2022-07-29T04:07:24;3.72;;;2.70;;
55288;SDS011;41154;45.394;5.734;2022-07-29T04:09:50;3.17;;;2.00;;
55288;SDS011;41154;45.394;5.734;2022-07-29T04:12:16;2.55;;;2.13;;
55288;SDS011;41154;45.394;5.734;2022-07-29T04:14:42;2.80;;;2.50;;
55288;SDS011;41154;45.394;5.734;2022-07-29T04:17:08;5.65;;;2.40;;
55288;SDS011;41154;45.394;5.734;2022-07-29T04:19:34;3.20;;;2.33;;
55288;SDS011;41154;45.394;5.734;2022-07-29T04:22:00;2.90;;;2.50;;
55288;SDS011;41154;45.394;5.734;2022-07-29T04:24:26;3.22;;;2.63;;
55288;SDS011;41154;45.394;5.734;2022-07-29T04:26:52;3.17;;;2.15;;
55288;SDS011;41154;45.394;5.734;2022-07-29T04:29:18;4.20;;;2.40;;
55288;SDS011;41154;45.394;5.734;2022-07-29T04:31:45;8.02;;;2.35;;
55288;SDS011;41154;45.394;5.734;2022-07-29T04:34:10;3.25;;;2.38;;
55288;SDS011;41154;45.394;5.734;2022-07-29T04:36:37;2.85;;;2.30;;
55288;SDS011;41154;45.394;5.734;2022-07-29T04:39:03;3.58;;;2.50;;
55288;SDS011;41154;45.394;5.734;2022-07-29T04:41:29;5.82;;;2.42;;
55288;SDS011;41154;45.394;5.734;2022-07-29T04:43:54;6.50;;;2.78;;
55288;SDS011;41154;45.394;5.734;2022-07-29T04:46:20;3.20;;;2.50;;
55288;SDS011;41154;45.394;5.734;2022-07-29T04:48:46;4.65;;;2.40;;
55288;SDS011;41154;45.394;5.734;2022-07-29T04:51:13;5.13;;;2.75;;
55288;SDS011;41154;45.394;5.734;2022-07-29T04:53:41;5.85;;;2.63;;
55288;SDS011;41154;45.394;5.734;2022-07-29T04:56:07;5.00;;;2.75;;
55288;SDS011;41154;45.394;5.734;2022-07-29T04:58:36;5.95;;;2.83;;
55288;SDS011;41154;45.394;5.734;2022-07-29T05:01:03;7.70;;;3.10;;
55288;SDS011;41154;45.394;5.734;2022-07-29T05:03:29;3.78;;;2.80;;
55288;SDS011;41154;45.394;5.734;2022-07-29T05:05:55;4.13;;;2.85;;
55288;SDS011;41154;45.394;5.734;2022-07-29T05:08:20;4.32;;;2.70;;
55288;SDS011;41154;45.394;5.734;2022-07-29T05:10:46;4.63;;;2.35;;
55288;SDS011;41154;45.394;5.734;2022-07-29T05:13:12;10.65;;;2.80;;
55288;SDS011;41154;45.394;5.734;2022-07-29T05:15:38;6.93;;;2.42;;
55288;SDS011;41154;45.394;5.734;2022-07-29T05:18:04;4.05;;;2.25;;
55288;SDS011;41154;45.394;5.734;2022-07-29T05:20:30;3.92;;;2.42;;
55288;SDS011;41154;45.394;5.734;2022-07-29T05:22:59;5.18;;;2.40;;
55288;SDS011;41154;45.394;5.734;2022-07-29T05:25:26;5.13;;;2.58;;
55288;SDS011;41154;45.394;5.734;2022-07-29T05:27:52;3.22;;;2.58;;
55288;SDS011;41154;45.394;5.734;2022-07-29T05:30:19;2.95;;;2.55;;
55288;SDS011;41154;45.394;5.734;2022-07-29T05:32:45;4.00;;;2.58;;
55288;SDS011;41154;45.394;5.734;2022-07-29T05:35:12;5.68;;;2.72;;
55288;SDS011;41154;45.394;5.734;2022-07-29T05:37:38;12.45;;;3.00;;
55288;SDS011;41154;45.394;5.734;2022-07-29T05:40:04;5.60;;;2.42;;
55288;SDS011;41154;45.394;5.734;2022-07-29T05:42:30;8.00;;;2.88;;
55288;SDS011;41154;45.394;5.734;2022-07-29T05:44:56;7.65;;;2.60;;
55288;SDS011;41154;45.394;5.734;2022-07-29T05:47:22;6.85;;;2.35;;
55288;SDS011;41154;45.394;5.734;2022-07-29T05:49:48;6.93;;;3.03;;
55288;SDS011;41154;45.394;5.734;2022-07-29T05:52:14;5.28;;;3.00;;
55288;SDS011;41154;45.394;5.734;2022-07-29T05:57:29;6.40;;;2.90;;
55288;SDS011;41154;45.394;5.734;2022-07-29T05:59:55;6.25;;;2.90;;
55288;SDS011;41154;45.394;5.734;2022-07-29T06:02:20;6.95;;;3.00;;
55288;SDS011;41154;45.394;5.734;2022-07-29T06:04:46;10.82;;;3.25;;
55288;SDS011;41154;45.394;5.734;2022-07-29T06:07:12;9.93;;;3.47;;
55288;SDS011;41154;45.394;5.734;2022-07-29T06:09:38;7.57;;;3.47;;
55288;SDS011;41154;45.394;5.734;2022-07-29T06:12:04;7.15;;;3.20;;
55288;SDS011;41154;45.394;5.734;2022-07-29T06:14:30;9.63;;;3.60;;
55288;SDS011;41154;45.394;5.734;2022-07-29T06:16:55;6.93;;;3.42;;
55288;SDS011;41154;45.394;5.734;2022-07-29T06:19:21;7.90;;;3.55;;
55288;SDS011;41154;45.394;5.734;2022-07-29T06:21:47;7.40;;;3.50;;
55288;SDS011;41154;45.394;5.734;2022-07-29T06:24:13;7.53;;;3.65;;
55288;SDS011;41154;45.394;5.734;2022-07-29T06:26:40;9.02;;;4.03;;
55288;SDS011;41154;45.394;5.734;2022-07-29T06:29:06;9.90;;;3.92;;
55288;SDS011;41154;45.394;5.734;2022-07-29T06:31:33;8.60;;;3.38;;
55288;SDS011;41154;45.394;5.734;2022-07-29T06:33:59;9.57;;;3.47;;
55288;SDS011;41154;45.394;5.734;2022-07-29T06:36:25;9.73;;;3.70;;
55288;SDS011;41154;45.394;5.734;2022-07-29T06:38:51;6.07;;;3.38;;
55288;SDS011;41154;45.394;5.734;2022-07-29T06:41:17;6.22;;;3.55;;
55288;SDS011;41154;45.394;5.734;2022-07-29T06:43:43;4.55;;;3.35;;
55288;SDS011;41154;45.394;5.734;2022-07-29T06:46:12;8.55;;;3.63;;
55288;SDS011;41154;45.394;5.734;2022-07-29T06:48:40;7.85;;;4.70;;
55288;SDS011;41154;45.394;5.734;2022-07-29T06:51:07;5.75;;;3.67;;
55288;SDS011;41154;45.394;5.734;2022-07-29T06:53:34;6.00;;;3.35;;
55288;SDS011;41154;45.394;5.734;2022-07-29T06:56:01;5.05;;;3.38;;
55288;SDS011;41154;45.394;5.734;2022-07-29T06:58:28;6.45;;;3.50;;
55288;SDS011;41154;45.394;5.734;2022-07-29T07:00:55;7.30;;;3.55;;
55288;SDS011;41154;45.394;5.734;2022-07-29T07:03:25;6.47;;;3.47;;
55288;SDS011;41154;45.394;5.734;2022-07-29T07:05:52;14.98;;;3.33;;
55288;SDS011;41154;45.394;5.734;2022-07-29T07:08:19;4.85;;;3.45;;
55288;SDS011;41154;45.394;5.734;2022-07-29T07:10:46;8.80;;;3.25;;
55288;SDS011;41154;45.394;5.734;2022-07-29T07:13:12;4.20;;;3.08;;
55288;SDS011;41154;45.394;5.734;2022-07-29T07:15:38;7.15;;;3.30;;
55288;SDS011;41154;45.394;5.734;2022-07-29T07:18:04;9.55;;;3.38;;
55288;SDS011;41154;45.394;5.734;2022-07-29T07:20:31;4.55;;;3.05;;
55288;SDS011;41154;45.394;5.734;2022-07-29T07:22:57;7.22;;;3.50;;
55288;SDS011;41154;45.394;5.734;2022-07-29T07:25:23;7.85;;;3.70;;
55288;SDS011;41154;45.394;5.734;2022-07-29T07:27:49;6.70;;;3.38;;
55288;SDS011;41154;45.394;5.734;2022-07-29T07:30:15;4.18;;;3.50;;
55288;SDS011;41154;45.394;5.734;2022-07-29T07:32:41;5.85;;;3.88;;
55288;SDS011;41154;45.394;5.734;2022-07-29T07:35:07;6.38;;;3.80;;
55288;SDS011;41154;45.394;5.734;2022-07-29T07:37:34;7.55;;;3.92;;
55288;SDS011;41154;45.394;5.734;2022-07-29T07:40:00;8.98;;;3.78;;
55288;SDS011;41154;45.394;5.734;2022-07-29T07:42:26;4.75;;;3.75;;
55288;SDS011;41154;45.394;5.734;2022-07-29T07:44:52;6.97;;;4.40;;
55288;SDS011;41154;45.394;5.734;2022-07-29T07:47:18;8.73;;;4.13;;
55288;SDS011;41154;45.394;5.734;2022-07-29T07:49:49;9.30;;;4.40;;
55288;SDS011;41154;45.394;5.734;2022-07-29T07:52:16;7.75;;;4.20;;
55288;SDS011;41154;45.394;5.734;2022-07-29T07:54:43;5.25;;;4.18;;
55288;SDS011;41154;45.394;5.734;2022-07-29T07:57:10;7.13;;;4.47;;
55288;SDS011;41154;45.394;5.734;2022-07-29T07:59:36;7.28;;;4.30;;
55288;SDS011;41154;45.394;5.734;2022-07-29T08:02:02;5.88;;;3.83;;
55288;SDS011;41154;45.394;5.734;2022-07-29T08:04:29;3.97;;;3.47;;
55288;SDS011;41154;45.394;5.734;2022-07-29T08:06:55;5.95;;;3.53;;
55288;SDS011;41154;45.394;5.734;2022-07-29T08:09:21;7.03;;;3.88;;
55288;SDS011;41154;45.394;5.734;2022-07-29T08:11:48;6.72;;;3.53;;
55288;SDS011;41154;45.394;5.734;2022-07-29T08:14:13;5.32;;;3.60;;
55288;SDS011;41154;45.394;5.734;2022-07-29T08:16:40;10.95;;;3.83;;
55288;SDS011;41154;45.394;5.734;2022-07-29T08:19:07;7.05;;;3.40;;
55288;SDS011;41154;45.394;5.734;2022-07-29T08:21:33;7.63;;;3.28;;
55288;SDS011;41154;45.394;5.734;2022-07-29T08:23:59;6.43;;;3.58;;
55288;SDS011;41154;45.394;5.734;2022-07-29T08:26:43;5.80;;;3.90;;
55288;SDS011;41154;45.394;5.734;2022-07-29T08:29:09;6.30;;;3.90;;
55288;SDS011;41154;45.394;5.734;2022-07-29T08:31:36;7.43;;;3.75;;
55288;SDS011;41154;45.394;5.734;2022-07-29T08:34:03;10.80;;;4.63;;
55288;SDS011;41154;45.394;5.734;2022-07-29T08:36:29;6.55;;;3.35;;
55288;SDS011;41154;45.394;5.734;2022-07-29T08:38:55;7.10;;;3.97;;
55288;SDS011;41154;45.394;5.734;2022-07-29T08:41:22;5.60;;;4.10;;
55288;SDS011;41154;45.394;5.734;2022-07-29T08:43:48;9.50;;;4.38;;
55288;SDS011;41154;45.394;5.734;2022-07-29T08:46:15;6.78;;;4.28;;
55288;SDS011;41154;45.394;5.734;2022-07-29T08:48:45;5.85;;;4.38;;
55288;SDS011;41154;45.394;5.734;2022-07-29T08:51:17;7.00;;;4.07;;
55288;SDS011;41154;45.394;5.734;2022-07-29T08:53:45;6.10;;;4.10;;
55288;SDS011;41154;45.394;5.734;2022-07-29T08:56:14;5.20;;;4.00;;
55288;SDS011;41154;45.394;5.734;2022-07-29T08:58:44;6.80;;;4.10;;
55288;SDS011;41154;45.394;5.734;2022-07-29T09:01:12;8.45;;;3.90;;
55288;SDS011;41154;45.394;5.734;2022-07-29T09:03:41;6.05;;;4.20;;
55288;SDS011;41154;45.394;5.734;2022-07-29T09:06:11;6.32;;;3.85;;
55288;SDS011;41154;45.394;5.734;2022-07-29T09:08:39;6.30;;;3.55;;
55288;SDS011;41154;45.394;5.734;2022-07-29T09:11:06;8.23;;;3.95;;
55288;SDS011;41154;45.394;5.734;2022-07-29T09:13:32;6.03;;;3.75;;
55288;SDS011;41154;45.394;5.734;2022-07-29T09:15:59;7.22;;;3.58;;
55288;SDS011;41154;45.394;5.734;2022-07-29T09:18:36;6.68;;;3.75;;
55288;SDS011;41154;45.394;5.734;2022-07-29T09:21:03;8.05;;;3.90;;
55288;SDS011;41154;45.394;5.734;2022-07-29T09:24:05;4.25;;;3.17;;
55288;SDS011;41154;45.394;5.734;2022-07-29T09:26:41;5.18;;;3.47;;
55288;SDS011;41154;45.394;5.734;2022-07-29T09:29:10;3.83;;;2.80;;
55288;SDS011;41154;45.394;5.734;2022-07-29T09:31:41;5.80;;;3.38;;
55288;SDS011;41154;45.394;5.734;2022-07-29T09:34:09;4.47;;;3.50;;
55288;SDS011;41154;45.394;5.734;2022-07-29T09:36:40;6.22;;;3.20;;
55288;SDS011;41154;45.394;5.734;2022-07-29T09:39:07;4.53;;;3.15;;
55288;SDS011;41154;45.394;5.734;2022-07-29T09:41:46;5.57;;;3.17;;
55288;SDS011;41154;45.394;5.734;2022-07-29T09:44:18;3.60;;;3.20;;
55288;SDS011;41154;45.394;5.734;2022-07-29T09:46:58;5.47;;;3.15;;
55288;SDS011;41154;45.394;5.734;2022-07-29T09:49:52;6.82;;;3.33;;
55288;SDS011;41154;45.394;5.734;2022-07-29T09:52:23;5.22;;;3.38;;
55288;SDS011;41154;45.394;5.734;2022-07-29T09:54:51;6.15;;;3.45;;
55288;SDS011;41154;45.394;5.734;2022-07-29T09:57:25;4.93;;;3.00;;
55288;SDS011;41154;45.394;5.734;2022-07-29T10:02:22;5.45;;;3.60;;
55288;SDS011;41154;45.394;5.734;2022-07-29T10:04:52;4.55;;;3.13;;
55288;SDS011;41154;45.394;5.734;2022-07-29T10:07:18;4.47;;;3.08;;
55288;SDS011;41154;45.394;5.734;2022-07-29T10:09:54;7.57;;;4.03;;
55288;SDS011;41154;45.394;5.734;2022-07-29T10:12:22;5.40;;;3.38;;
55288;SDS011;41154;45.394;5.734;2022-07-29T10:14:49;4.85;;;3.60;;
55288;SDS011;41154;45.394;5.734;2022-07-29T10:17:16;6.20;;;3.30;;
55288;SDS011;41154;45.394;5.734;2022-07-29T10:19:42;4.35;;;3.50;;
55288;SDS011;41154;45.394;5.734;2022-07-29T10:22:09;6.63;;;3.80;;
55288;SDS011;41154;45.394;5.734;2022-07-29T10:24:36;10.38;;;3.90;;
55288;SDS011;41154;45.394;5.734;2022-07-29T10:27:04;5.18;;;3.72;;
55288;SDS011;41154;45.394;5.734;2022-07-29T10:29:32;5.70;;;3.50;;
55288;SDS011;41154;45.394;5.734;2022-07-29T10:40:00;5.25;;;4.28;;
55288;SDS011;41154;45.394;5.734;2022-07-29T10:42:48;7.20;;;3.80;;
55288;SDS011;41154;45.394;5.734;2022-07-29T10:45:16;5.10;;;3.85;;
55288;SDS011;41154;45.394;5.734;2022-07-29T10:47:42;4.75;;;4.28;;
55288;SDS011;41154;45.394;5.734;2022-07-29T10:50:08;5.75;;;4.47;;
55288;SDS011;41154;45.394;5.734;2022-07-29T11:00:56;5.13;;;3.93;;
55288;SDS011;41154;45.394;5.734;2022-07-29T11:06:11;5.75;;;4.25;;
55288;SDS011;41154;45.394;5.734;2022-07-29T11:08:37;4.90;;;3.55;;
55288;SDS011;41154;45.394;5.734;2022-07-29T11:16:15;6.57;;;3.83;;
55288;SDS011;41154;45.394;5.734;2022-07-29T11:21:36;5.57;;;3.25;;
55288;SDS011;41154;45.394;5.734;2022-07-29T11:26:41;4.82;;;3.67;;
55288;SDS011;41154;45.394;5.734;2022-07-29T11:31:50;7.35;;;3.90;;
55288;SDS011;41154;45.394;5.734;2022-07-29T11:34:27;6.38;;;4.00;;
55288;SDS011;41154;45.394;5.734;2022-07-29T11:39:34;6.57;;;4.07;;
55288;SDS011;41154;45.394;5.734;2022-07-29T11:47:47;6.22;;;3.70;;
55288;SDS011;41154;45.394;5.734;2022-07-29T11:50:37;4.45;;;3.55;;
55288;SDS011;41154;45.394;5.734;2022-07-29T11:53:03;6.13;;;3.53;;
55288;SDS011;41154;45.394;5.734;2022-07-29T11:55:36;4.15;;;3.10;;
55288;SDS011;41154;45.394;5.734;2022-07-29T11:58:04;5.57;;;3.88;;
55288;SDS011;41154;45.394;5.734;2022-07-29T12:02:57;5.15;;;3.88;;
55288;SDS011;41154;45.394;5.734;2022-07-29T12:08:09;4.63;;;3.60;;
55288;SDS011;41154;45.394;5.734;2022-07-29T12:10:35;4.75;;;3.85;;
55288;SDS011;41154;45.394;5.734;2022-07-29T12:13:01;6.25;;;3.72;;
55288;SDS011;41154;45.394;5.734;2022-07-29T12:15:27;5.50;;;4.07;;
55288;SDS011;41154;45.394;5.734;2022-07-29T12:17:52;4.53;;;3.70;;
55288;SDS011;41154;45.394;5.734;2022-07-29T12:20:28;5.85;;;4.10;;
55288;SDS011;41154;45.394;5.734;2022-07-29T12:22:55;4.57;;;4.10;;
55288;SDS011;41154;45.394;5.734;2022-07-29T12:25:22;6.30;;;3.90;;
55288;SDS011;41154;45.394;5.734;2022-07-29T12:27:58;5.60;;;3.88;;
55288;SDS011;41154;45.394;5.734;2022-07-29T12:30:35;5.38;;;3.75;;
55288;SDS011;41154;45.394;5.734;2022-07-29T12:33:16;7.88;;;3.42;;
55288;SDS011;41154;45.394;5.734;2022-07-29T12:35:58;4.45;;;3.45;;
55288;SDS011;41154;45.394;5.734;2022-07-29T12:38:26;3.75;;;3.20;;
55288;SDS011;41154;45.394;5.734;2022-07-29T12:40:52;4.47;;;3.35;;
55288;SDS011;41154;45.394;5.734;2022-07-29T12:43:20;5.32;;;4.15;;
55288;SDS011;41154;45.394;5.734;2022-07-29T12:45:51;5.25;;;3.53;;
55288;SDS011;41154;45.394;5.734;2022-07-29T12:48:34;4.55;;;3.50;;
55288;SDS011;41154;45.394;5.734;2022-07-29T12:51:01;7.50;;;3.55;;
55288;SDS011;41154;45.394;5.734;2022-07-29T12:53:28;4.25;;;3.22;;
55288;SDS011;41154;45.394;5.734;2022-07-29T12:55:55;5.63;;;3.42;;
55288;SDS011;41154;45.394;5.734;2022-07-29T12:58:33;3.90;;;3.40;;
55288;SDS011;41154;45.394;5.734;2022-07-29T13:03:27;4.32;;;3.50;;
55288;SDS011;41154;45.394;5.734;2022-07-29T13:05:53;4.53;;;3.75;;
55288;SDS011;41154;45.394;5.734;2022-07-29T13:08:19;5.03;;;3.85;;
55288;SDS011;41154;45.394;5.734;2022-07-29T13:10:45;5.53;;;4.03;;
55288;SDS011;41154;45.394;5.734;2022-07-29T13:13:12;5.20;;;3.88;;
55288;SDS011;41154;45.394;5.734;2022-07-29T13:15:41;3.65;;;3.35;;
55288;SDS011;41154;45.394;5.734;2022-07-29T13:20:57;7.18;;;3.78;;
55288;SDS011;41154;45.394;5.734;2022-07-29T13:23:36;4.45;;;3.60;;
55288;SDS011;41154;45.394;5.734;2022-07-29T13:26:09;4.28;;;3.88;;
55288;SDS011;41154;45.394;5.734;2022-07-29T13:28:37;4.00;;;3.05;;
55288;SDS011;41154;45.394;5.734;2022-07-29T13:31:03;3.13;;;2.78;;
55288;SDS011;41154;45.394;5.734;2022-07-29T13:33:30;3.50;;;2.90;;
55288;SDS011;41154;45.394;5.734;2022-07-29T13:35:55;5.63;;;3.22;;
55288;SDS011;41154;45.394;5.734;2022-07-29T13:38:21;3.28;;;2.97;;
55288;SDS011;41154;45.394;5.734;2022-07-29T13:40:47;3.70;;;2.92;;
55288;SDS011;41154;45.394;5.734;2022-07-29T13:43:13;5.60;;;2.53;;
55288;SDS011;41154;45.394;5.734;2022-07-29T13:45:39;3.85;;;3.00;;
55288;SDS011;41154;45.394;5.734;2022-07-29T13:48:05;3.03;;;2.40;;
55288;SDS011;41154;45.394;5.734;2022-07-29T13:50:31;3.90;;;2.80;;
55288;SDS011;41154;45.394;5.734;2022-07-29T13:52:58;3.63;;;2.67;;
55288;SDS011;41154;45.394;5.734;2022-07-29T13:55:24;5.20;;;2.95;;
55288;SDS011;41154;45.394;5.734;2022-07-29T13:57:49;2.65;;;2.40;;
55288;SDS011;41154;45.394;5.734;2022-07-29T14:00:15;4.72;;;2.53;;
55288;SDS011;41154;45.394;5.734;2022-07-29T14:02:43;2.88;;;2.20;;
55288;SDS011;41154;45.394;5.734;2022-07-29T14:05:09;2.92;;;2.35;;
55288;SDS011;41154;45.394;5.734;2022-07-29T14:07:36;3.90;;;2.45;;
55288;SDS011;41154;45.394;5.734;2022-07-29T14:10:03;6.05;;;3.00;;
55288;SDS011;41154;45.394;5.734;2022-07-29T14:12:30;4.03;;;2.15;;
55288;SDS011;41154;45.394;5.734;2022-07-29T14:14:55;2.78;;;2.35;;
55288;SDS011;41154;45.394;5.734;2022-07-29T14:17:21;4.13;;;2.08;;
55288;SDS011;41154;45.394;5.734;2022-07-29T14:19:47;2.58;;;2.03;;
55288;SDS011;41154;45.394;5.734;2022-07-29T14:22:13;2.60;;;1.90;;
55288;SDS011;41154;45.394;5.734;2022-07-29T14:24:39;3.53;;;2.08;;
55288;SDS011;41154;45.394;5.734;2022-07-29T14:27:06;2.60;;;2.10;;
55288;SDS011;41154;45.394;5.734;2022-07-29T14:29:32;2.45;;;1.90;;
55288;SDS011;41154;45.394;5.734;2022-07-29T14:31:59;2.20;;;1.70;;
55288;SDS011;41154;45.394;5.734;2022-07-29T14:34:25;3.70;;;1.77;;
55288;SDS011;41154;45.394;5.734;2022-07-29T14:36:51;3.45;;;2.33;;
55288;SDS011;41154;45.394;5.734;2022-07-29T14:39:21;3.13;;;2.40;;
55288;SDS011;41154;45.394;5.734;2022-07-29T14:41:49;2.30;;;2.10;;
55288;SDS011;41154;45.394;5.734;2022-07-29T14:44:16;2.05;;;1.73;;
55288;SDS011;41154;45.394;5.734;2022-07-29T14:46:43;2.08;;;1.50;;
55288;SDS011;41154;45.394;5.734;2022-07-29T14:49:09;2.10;;;1.90;;
55288;SDS011;41154;45.394;5.734;2022-07-29T14:51:35;1.83;;;1.48;;
55288;SDS011;41154;45.394;5.734;2022-07-29T14:54:00;2.10;;;1.90;;
55288;SDS011;41154;45.394;5.734;2022-07-29T14:56:26;2.33;;;1.85;;
55288;SDS011;41154;45.394;5.734;2022-07-29T14:58:55;2.42;;;1.33;;
55288;SDS011;41154;45.394;5.734;2022-07-29T15:01:21;1.48;;;1.38;;
55288;SDS011;41154;45.394;5.734;2022-07-29T15:03:47;3.08;;;1.30;;
55288;SDS011;41154;45.394;5.734;2022-07-29T15:06:13;2.00;;;1.40;;
55288;SDS011;41154;45.394;5.734;2022-07-29T15:08:38;1.33;;;1.10;;
55288;SDS011;41154;45.394;5.734;2022-07-29T15:11:05;2.03;;;1.30;;
55288;SDS011;41154;45.394;5.734;2022-07-29T15:13:32;2.55;;;1.23;;
55288;SDS011;41154;45.394;5.734;2022-07-29T15:15:58;1.67;;;1.40;;
55288;SDS011;41154;45.394;5.734;2022-07-29T15:18:24;2.25;;;1.35;;
55288;SDS011;41154;45.394;5.734;2022-07-29T15:20:50;1.70;;;1.40;;
55288;SDS011;41154;45.394;5.734;2022-07-29T15:23:15;1.65;;;1.55;;
55288;SDS011;41154;45.394;5.734;2022-07-29T15:25:41;1.88;;;1.58;;
55288;SDS011;41154;45.394;5.734;2022-07-29T15:28:07;1.58;;;1.23;;
55288;SDS011;41154;45.394;5.734;2022-07-29T15:30:33;1.33;;;1.17;;
55288;SDS011;41154;45.394;5.734;2022-07-29T15:33:01;2.38;;;1.20;;
55288;SDS011;41154;45.394;5.734;2022-07-29T15:35:28;1.67;;;1.30;;
55288;SDS011;41154;45.394;5.734;2022-07-29T15:37:53;1.77;;;1.42;;
55288;SDS011;41154;45.394;5.734;2022-07-29T15:40:19;1.35;;;1.25;;
55288;SDS011;41154;45.394;5.734;2022-07-29T15:42:45;2.60;;;1.83;;
55288;SDS011;41154;45.394;5.734;2022-07-29T15:45:11;1.80;;;1.40;;
55288;SDS011;41154;45.394;5.734;2022-07-29T15:47:37;1.52;;;1.40;;
55288;SDS011;41154;45.394;5.734;2022-07-29T15:50:03;1.42;;;1.30;;
55288;SDS011;41154;45.394;5.734;2022-07-29T15:52:29;1.63;;;1.40;;
55288;SDS011;41154;45.394;5.734;2022-07-29T15:54:55;2.05;;;1.60;;
55288;SDS011;41154;45.394;5.734;2022-07-29T15:57:21;1.67;;;1.50;;
55288;SDS011;41154;45.394;5.734;2022-07-29T15:59:48;1.40;;;1.30;;
55288;SDS011;41154;45.394;5.734;2022-07-29T16:02:14;1.40;;;1.30;;
55288;SDS011;41154;45.394;5.734;2022-07-29T16:04:40;2.13;;;1.48;;
55288;SDS011;41154;45.394;5.734;2022-07-29T16:07:06;1.45;;;1.35;;